createdAt,value
2023-05-19T00:00:37.130Z,99460.34
2023-05-19T00:03:08.960Z,99465.63
2023-05-19T00:05:40.806Z,99468.03
2023-05-19T00:08:11.169Z,99459.78
2023-05-19T00:10:40.548Z,99461.25
2023-05-19T00:13:09.482Z,99465.34
2023-05-19T00:15:38.829Z,99462.13
2023-05-19T00:18:10.038Z,99462.94
2023-05-19T00:20:38.911Z,99462.56
2023-05-19T00:23:07.656Z,99465.78
2023-05-19T00:25:36.322Z,99463.59
2023-05-19T00:28:05.408Z,99465.88
2023-05-19T00:30:34.259Z,99469.97
2023-05-19T00:33:03.137Z,99456.94
2023-05-19T00:35:33.224Z,99465.59
2023-05-19T00:38:01.907Z,99456.41
2023-05-19T00:40:31.314Z,99450.56
2023-05-19T00:43:00.462Z,99451.22
2023-05-19T00:45:29.561Z,99445.59
2023-05-19T00:47:58.501Z,99447.22
2023-05-19T00:50:28.397Z,99448.81
2023-05-19T00:52:58.454Z,99449.84
2023-05-19T00:55:29.565Z,99440.00
2023-05-19T00:57:58.484Z,99449.63
2023-05-19T01:00:27.168Z,99442.63
2023-05-19T01:02:56.149Z,99445.81
2023-05-19T01:05:24.825Z,99446.41
2023-05-19T01:07:55.561Z,99450.44
2023-05-19T01:10:25.648Z,99437.09
2023-05-19T01:12:54.324Z,99441.50
2023-05-19T01:15:23.336Z,99441.16
2023-05-19T01:17:57.157Z,99438.53
2023-05-19T01:20:33.212Z,99437.50
2023-05-19T01:23:17.190Z,99440.78
2023-05-19T01:26:13.659Z,99449.25
2023-05-19T01:28:58.780Z,99440.78
2023-05-19T01:31:29.007Z,99447.88
2023-05-19T01:33:58.413Z,99450.28
2023-05-19T01:36:27.635Z,99449.25
2023-05-19T01:39:01.399Z,99450.50
2023-05-19T01:41:30.715Z,99451.50
2023-05-19T01:43:59.514Z,99450.09
2023-05-19T01:46:29.636Z,99455.38
2023-05-19T01:48:59.066Z,99454.63
2023-05-19T01:51:28.527Z,99455.84
2023-05-19T01:53:57.464Z,99455.50
2023-05-19T01:56:33.713Z,99461.97
2023-05-19T01:59:09.835Z,99453.16
2023-05-19T02:01:47.751Z,99449.72
2023-05-19T02:04:21.545Z,99447.47
2023-05-19T02:06:56.373Z,99450.53
2023-05-19T02:09:34.067Z,99446.09
2023-05-19T02:12:07.504Z,99444.25
2023-05-19T02:14:41.418Z,99434.53
2023-05-19T02:17:13.646Z,99438.13
2023-05-19T02:19:42.634Z,99446.63
2023-05-19T02:22:11.456Z,99445.16
2023-05-19T02:24:41.425Z,99449.03
2023-05-19T02:27:10.061Z,99456.69
2023-05-19T02:29:38.741Z,99452.66
2023-05-19T02:32:08.475Z,99454.72
2023-05-19T02:34:38.570Z,99450.59
2023-05-19T02:37:07.802Z,99454.28
2023-05-19T02:39:36.436Z,99449.03
2023-05-19T02:42:05.579Z,99445.34
2023-05-19T02:44:34.379Z,99442.59
2023-05-19T02:47:03.135Z,99450.69
2023-05-19T02:49:35.769Z,99450.09
2023-05-19T02:52:06.842Z,99455.63
2023-05-19T02:54:36.173Z,99455.28
2023-05-19T02:57:05.139Z,99446.69
2023-05-19T02:59:33.811Z,99439.44
2023-05-19T03:02:03.258Z,99433.03
2023-05-19T03:04:31.930Z,99440.94
2023-05-19T03:07:00.593Z,99433.56
2023-05-19T03:09:31.249Z,99437.78
2023-05-19T03:12:03.890Z,99444.25
2023-05-19T03:14:33.574Z,99432.16
2023-05-19T03:17:02.331Z,99439.00
2023-05-19T03:19:32.434Z,99439.66
2023-05-19T03:22:01.050Z,99442.72
2023-05-19T03:24:31.044Z,99444.03
2023-05-19T03:26:59.680Z,99439.63
2023-05-19T03:29:28.376Z,99439.00
2023-05-19T03:31:57.053Z,99446.50
2023-05-19T03:34:25.794Z,99448.59
2023-05-19T03:36:54.399Z,99443.38
2023-05-19T03:39:23.046Z,99447.91
2023-05-19T03:41:53.002Z,99443.88
2023-05-19T03:44:21.685Z,99441.47
2023-05-19T03:46:50.401Z,99436.44
2023-05-19T03:49:19.170Z,99435.59
2023-05-19T03:51:47.852Z,99433.81
2023-05-19T03:54:16.916Z,99438.06
2023-05-19T03:56:46.063Z,99442.09
2023-05-19T03:59:16.123Z,99444.13
2023-05-19T04:01:44.780Z,99449.56
2023-05-19T04:04:13.417Z,99443.53
2023-05-19T04:06:42.070Z,99447.94
2023-05-19T04:09:13.783Z,99448.16
2023-05-19T04:11:42.959Z,99453.81
2023-05-19T04:14:11.613Z,99457.03
2023-05-19T04:16:41.998Z,99461.09
2023-05-19T04:19:10.778Z,99451.22
2023-05-19T04:21:39.462Z,99449.63
2023-05-19T04:24:08.492Z,99450.22
2023-05-19T04:26:38.347Z,99457.06
2023-05-19T04:29:07.053Z,99449.41
2023-05-19T04:31:36.434Z,99455.47
2023-05-19T04:34:07.837Z,99457.88
2023-05-19T04:36:36.620Z,99457.69
2023-05-19T04:39:07.893Z,99453.06
2023-05-19T04:41:36.588Z,99458.91
2023-05-19T04:44:05.256Z,99460.53
2023-05-19T04:46:33.953Z,99457.50
2023-05-19T04:49:03.159Z,99463.75
2023-05-19T04:51:33.287Z,99467.56
2023-05-19T04:54:02.311Z,99474.59
2023-05-19T04:56:30.930Z,99466.72
2023-05-19T04:58:59.647Z,99467.91
2023-05-19T05:01:28.395Z,99470.13
2023-05-19T05:03:58.931Z,99472.13
2023-05-19T05:06:28.605Z,99474.13
2023-05-19T05:08:58.595Z,99469.72
2023-05-19T05:11:28.192Z,99469.94
2023-05-19T05:13:58.082Z,99464.91
2023-05-19T05:16:27.984Z,99470.13
2023-05-19T05:18:57.515Z,99461.25
2023-05-19T05:21:27.162Z,99460.38
2023-05-19T05:23:56.356Z,99459.94
2023-05-19T05:26:30.737Z,99459.66
2023-05-19T05:28:59.414Z,99454.63
2023-05-19T05:31:28.090Z,99453.78
2023-05-19T05:33:56.777Z,99454.13
2023-05-19T05:36:25.456Z,99451.97
2023-05-19T05:38:54.137Z,99452.63
2023-05-19T05:41:22.823Z,99453.94
2023-05-19T05:43:52.768Z,99455.19
2023-05-19T05:46:21.502Z,99461.09
2023-05-19T05:48:50.833Z,99461.78
2023-05-19T05:51:22.484Z,99457.44
2023-05-19T05:53:54.075Z,99460.63
2023-05-19T05:56:23.244Z,99459.34
2023-05-19T05:58:53.729Z,99464.16
2023-05-19T06:01:23.957Z,99467.72
2023-05-19T06:03:52.678Z,99466.94
2023-05-19T06:06:21.311Z,99463.91
2023-05-19T06:08:50.005Z,99472.13
2023-05-19T06:11:19.581Z,99456.72
2023-05-19T06:13:48.307Z,99468.88
2023-05-19T06:16:18.350Z,99460.75
2023-05-19T06:18:47.103Z,99468.31
2023-05-19T06:21:17.536Z,99453.34
2023-05-19T06:23:46.247Z,99454.81
2023-05-19T06:26:15.381Z,99455.50
2023-05-19T06:28:44.032Z,99458.72
2023-05-19T06:31:12.670Z,99449.94
2023-05-19T06:33:42.679Z,99445.41
2023-05-19T06:36:12.045Z,99454.22
2023-05-19T06:38:40.990Z,99451.31
2023-05-19T06:41:09.788Z,99458.59
2023-05-19T06:43:38.517Z,99456.81
2023-05-19T06:46:07.147Z,99454.31
2023-05-19T06:48:35.886Z,99458.78
2023-05-19T06:51:06.316Z,99450.91
2023-05-19T06:53:34.972Z,99450.44
2023-05-19T06:56:03.621Z,99453.50
2023-05-19T06:58:32.256Z,99451.56
2023-05-19T07:01:00.956Z,99460.72
2023-05-19T07:03:30.948Z,99458.09
2023-05-19T07:05:59.854Z,99459.44
2023-05-19T07:08:29.925Z,99454.88
2023-05-19T07:10:58.603Z,99456.94
2023-05-19T07:13:27.761Z,99452.25
2023-05-19T07:15:56.672Z,99462.06
2023-05-19T07:18:25.414Z,99465.47
2023-05-19T07:20:54.299Z,99460.00
2023-05-19T07:23:22.947Z,99455.31
2023-05-19T07:25:55.302Z,99455.53
2023-05-19T07:28:23.969Z,99457.81
2023-05-19T07:30:53.195Z,99450.69
2023-05-19T07:33:21.858Z,99459.81
2023-05-19T07:35:50.521Z,99449.31
2023-05-19T07:38:19.238Z,99442.34
2023-05-19T07:40:47.943Z,99445.88
2023-05-19T07:43:17.947Z,99439.06
2023-05-19T07:45:46.735Z,99451.75
2023-05-19T07:48:15.715Z,99447.66
2023-05-19T07:50:44.552Z,99447.41
2023-05-19T07:53:13.225Z,99446.34
2023-05-19T07:55:41.937Z,99445.91
2023-05-19T07:58:10.556Z,99438.72
2023-05-19T08:00:42.940Z,99443.97
2023-05-19T08:03:11.820Z,99442.94
2023-05-19T08:05:40.637Z,99443.03
2023-05-19T08:08:09.510Z,99439.38
2023-05-19T08:10:38.172Z,99434.91
2023-05-19T08:13:07.697Z,99436.53
2023-05-19T08:15:36.845Z,99435.97
2023-05-19T08:18:07.094Z,99426.38
2023-05-19T08:20:36.735Z,99428.09
2023-05-19T08:23:05.475Z,99426.75
2023-05-19T08:25:34.229Z,99438.94
2023-05-19T08:28:02.874Z,99418.03
2023-05-19T08:30:31.745Z,99422.59
2023-05-19T08:33:00.598Z,99417.91
2023-05-19T08:35:30.731Z,99419.63
2023-05-19T08:37:59.341Z,99409.34
2023-05-19T08:40:31.724Z,99419.25
2023-05-19T08:43:00.617Z,99409.53
2023-05-19T08:45:29.800Z,99411.75
2023-05-19T08:47:59.155Z,99412.88
2023-05-19T08:50:33.486Z,99408.31
2023-05-19T08:53:04.674Z,99410.47
2023-05-19T08:55:36.332Z,99407.38
2023-05-19T08:58:05.532Z,99418.50
2023-05-19T09:00:35.168Z,99408.88
2023-05-19T09:03:17.568Z,99412.88
2023-05-19T09:05:49.462Z,99411.41
2023-05-19T09:08:18.598Z,99405.00
2023-05-19T09:10:47.371Z,99410.06
2023-05-19T09:13:16.060Z,99415.78
2023-05-19T09:15:45.594Z,99411.41
2023-05-19T09:18:15.248Z,99409.25
2023-05-19T09:20:44.998Z,99411.53
2023-05-19T09:23:16.159Z,99398.03
2023-05-19T09:25:49.308Z,99404.19
2023-05-19T09:28:25.127Z,99408.69
2023-05-19T09:31:03.488Z,99408.22
2023-05-19T09:33:34.111Z,99404.31
2023-05-19T09:36:03.391Z,99413.38
2023-05-19T09:38:33.609Z,99410.53
2023-05-19T09:41:02.527Z,99405.59
2023-05-19T09:43:31.712Z,99402.16
2023-05-19T09:46:01.592Z,99409.13
2023-05-19T09:48:31.279Z,99399.41
2023-05-19T09:51:02.420Z,99396.78
2023-05-19T09:53:33.804Z,99394.81
2023-05-19T09:56:03.649Z,99394.25
2023-05-19T09:58:34.753Z,99394.13
2023-05-19T10:01:04.410Z,99390.47
2023-05-19T10:03:33.675Z,99393.22
2023-05-19T10:06:02.840Z,99389.34
2023-05-19T10:08:33.264Z,99388.88
2023-05-19T10:11:02.200Z,99387.38
2023-05-19T10:13:32.044Z,99396.78
2023-05-19T10:16:01.782Z,99389.97
2023-05-19T10:18:31.192Z,99383.34
2023-05-19T10:21:00.295Z,99388.31
2023-05-19T10:23:28.965Z,99393.91
2023-05-19T10:25:59.927Z,99390.47
2023-05-19T10:28:42.137Z,99389.19
2023-05-19T10:31:14.756Z,99388.94
2023-05-19T10:33:53.438Z,99389.72
2023-05-19T10:36:40.640Z,99395.66
2023-05-19T10:39:14.161Z,99390.66
2023-05-19T10:41:48.474Z,99383.50
2023-05-19T10:44:24.574Z,99388.16
2023-05-19T10:46:55.651Z,99376.16
2023-05-19T10:49:25.512Z,99379.59
2023-05-19T10:51:59.168Z,99380.50
2023-05-19T10:54:43.644Z,99382.91
2023-05-19T10:57:17.546Z,99374.78
2023-05-19T10:59:46.295Z,99373.28
2023-05-19T11:02:39.901Z,99372.09
2023-05-19T11:05:10.539Z,99373.66
2023-05-19T11:07:42.691Z,99377.81
2023-05-19T11:10:12.511Z,99379.28
2023-05-19T11:12:44.064Z,99378.34
2023-05-19T11:15:13.868Z,99368.75
2023-05-19T11:17:44.027Z,99378.38
2023-05-19T11:20:23.748Z,99375.19
2023-05-19T11:23:08.380Z,99374.66
2023-05-19T11:25:44.926Z,99376.81
2023-05-19T11:28:17.337Z,99372.44
2023-05-19T11:30:50.633Z,99378.63
2023-05-19T11:33:20.957Z,99381.69
2023-05-19T11:35:51.489Z,99375.97
2023-05-19T11:38:20.421Z,99374.66
2023-05-19T11:40:50.036Z,99382.31
2023-05-19T11:43:20.112Z,99379.88
2023-05-19T11:45:48.821Z,99374.97
2023-05-19T11:48:18.267Z,99374.50
2023-05-19T11:50:47.139Z,99370.78
2023-05-19T11:53:16.407Z,99372.53
2023-05-19T11:55:47.051Z,99368.41
2023-05-19T11:58:16.206Z,99362.47
2023-05-19T12:00:47.564Z,99357.38
2023-05-19T12:03:17.404Z,99360.59
2023-05-19T12:05:47.794Z,99359.44
2023-05-19T12:08:18.153Z,99363.63
2023-05-19T12:10:49.363Z,99367.41
2023-05-19T12:13:18.040Z,99359.19
2023-05-19T12:15:48.233Z,99354.25
2023-05-19T12:18:17.053Z,99349.25
2023-05-19T12:20:45.812Z,99353.41
2023-05-19T12:23:15.026Z,99354.25
2023-05-19T12:25:43.783Z,99351.00
2023-05-19T12:28:12.465Z,99364.31
2023-05-19T12:30:41.482Z,99366.59
2023-05-19T12:33:11.878Z,99372.28
2023-05-19T12:35:40.718Z,99369.91
2023-05-19T12:38:09.420Z,99365.88
2023-05-19T12:40:42.480Z,99366.00
2023-05-19T12:43:20.117Z,99364.59
2023-05-19T12:45:48.882Z,99362.47
2023-05-19T12:48:20.006Z,99367.13
2023-05-19T12:50:49.387Z,99368.94
2023-05-19T12:53:18.773Z,99378.53
2023-05-19T12:55:47.495Z,99365.53
2023-05-19T12:58:16.758Z,99371.16
2023-05-19T13:00:48.412Z,99369.94
2023-05-19T13:03:19.632Z,99357.59
2023-05-19T13:05:50.371Z,99354.38
2023-05-19T13:08:20.560Z,99363.50
2023-05-19T13:10:49.882Z,99362.78
2023-05-19T13:13:18.720Z,99359.13
2023-05-19T13:15:49.910Z,99361.19
2023-05-19T13:18:20.080Z,99359.19
2023-05-19T13:20:50.192Z,99354.81
2023-05-19T13:23:19.281Z,99346.25
2023-05-19T13:25:48.038Z,99345.09
2023-05-19T13:28:16.709Z,99341.06
2023-05-19T13:30:46.157Z,99338.63
2023-05-19T13:33:15.096Z,99344.59
2023-05-19T13:35:45.143Z,99337.41
2023-05-19T13:38:14.615Z,99336.03
2023-05-19T13:40:43.295Z,99346.47
2023-05-19T13:43:11.941Z,99335.13
2023-05-19T13:45:42.157Z,99339.56
2023-05-19T13:48:11.767Z,99340.69
2023-05-19T13:50:40.474Z,99337.41
2023-05-19T13:53:11.522Z,99331.94
2023-05-19T13:55:40.640Z,99335.78
2023-05-19T13:58:10.976Z,99331.97
2023-05-19T14:00:39.825Z,99330.06
2023-05-19T14:03:08.673Z,99333.19
2023-05-19T14:05:37.430Z,99329.28
2023-05-19T14:08:06.766Z,99322.72
2023-05-19T14:10:36.772Z,99314.22
2023-05-19T14:13:30.355Z,99314.16
2023-05-19T14:15:54.336Z,99314.72
2023-05-19T14:18:22.979Z,99317.34
2023-05-19T14:20:51.706Z,99306.06
2023-05-19T14:23:21.540Z,99303.53
2023-05-19T14:25:51.603Z,99314.22
2023-05-19T14:28:20.794Z,99316.31
2023-05-19T14:30:49.966Z,99310.47
2023-05-19T14:33:19.374Z,99297.44
2023-05-19T14:35:49.306Z,99302.50
2023-05-19T14:38:18.055Z,99307.97
2023-05-19T14:40:48.445Z,99306.06
2023-05-19T14:43:18.688Z,99304.06
2023-05-19T14:45:47.424Z,99307.09
2023-05-19T14:48:16.248Z,99310.81
2023-05-19T14:50:45.090Z,99318.09
2023-05-19T14:53:13.716Z,99316.78
2023-05-19T14:55:42.409Z,99309.66
2023-05-19T14:58:27.039Z,99317.56
2023-05-19T15:01:00.104Z,99329.72
2023-05-19T15:03:28.946Z,99319.16
2023-05-19T15:05:57.751Z,99316.09
2023-05-19T15:08:26.533Z,99317.13
2023-05-19T15:10:55.180Z,99317.44
2023-05-19T15:13:23.850Z,99303.34
2023-05-19T15:16:08.246Z,99304.53
2023-05-19T15:18:45.197Z,99297.97
2023-05-19T15:21:14.057Z,99297.25
2023-05-19T15:23:42.783Z,99302.41
2023-05-19T15:26:11.445Z,99298.25
2023-05-19T15:28:40.223Z,99302.81
2023-05-19T15:31:08.882Z,99302.81
2023-05-19T15:33:37.731Z,99293.53
2023-05-19T15:36:07.880Z,99294.78
2023-05-19T15:38:37.180Z,99294.34
2023-05-19T15:41:08.124Z,99288.47
2023-05-19T15:43:36.919Z,99284.66
2023-05-19T15:46:06.056Z,99283.59
2023-05-19T15:48:34.917Z,99277.91
2023-05-19T15:51:03.648Z,99271.53
2023-05-19T15:53:33.701Z,99266.25
2023-05-19T15:56:03.976Z,99271.84
2023-05-19T15:58:33.425Z,99268.41
2023-05-19T16:01:02.192Z,99264.47
2023-05-19T16:03:31.007Z,99259.44
2023-05-19T16:06:00.714Z,99267.75
2023-05-19T16:08:29.628Z,99261.28
2023-05-19T16:10:59.632Z,99259.19
2023-05-19T16:13:28.354Z,99252.16
2023-05-19T16:15:57.067Z,99249.75
2023-05-19T16:18:25.916Z,99244.88
2023-05-19T16:20:54.607Z,99237.22
2023-05-19T16:23:24.745Z,99236.19
2023-05-19T16:25:54.632Z,99235.19
2023-05-19T16:28:25.117Z,99237.78
2023-05-19T16:30:53.897Z,99235.69
2023-05-19T16:33:22.515Z,99235.19
2023-05-19T16:35:51.408Z,99234.72
2023-05-19T16:38:20.392Z,99241.69
2023-05-19T16:40:49.045Z,99236.31
2023-05-19T16:43:17.734Z,99238.41
2023-05-19T16:45:47.797Z,99234.56
2023-05-19T16:48:16.566Z,99237.78
2023-05-19T16:50:45.239Z,99233.00
2023-05-19T16:53:13.914Z,99221.78
2023-05-19T16:55:42.584Z,99220.75
2023-05-19T16:58:11.601Z,99222.38
2023-05-19T17:00:40.389Z,99222.91
2023-05-19T17:03:11.664Z,99216.84
2023-05-19T17:05:43.323Z,99224.66
2023-05-19T17:08:12.599Z,99222.34
2023-05-19T17:10:41.386Z,99222.59
2023-05-19T17:13:10.038Z,99221.00
2023-05-19T17:15:39.995Z,99215.47
2023-05-19T17:18:12.630Z,99213.66
2023-05-19T17:20:41.588Z,99204.13
2023-05-19T17:23:10.607Z,99206.53
2023-05-19T17:25:39.208Z,99207.09
2023-05-19T17:28:07.881Z,99205.75
2023-05-19T17:30:36.599Z,99218.94
2023-05-19T17:33:05.762Z,99226.13
2023-05-19T17:35:35.873Z,99211.66
2023-05-19T17:38:04.599Z,99217.97
2023-05-19T17:40:33.491Z,99213.00
2023-05-19T17:43:02.394Z,99199.66
2023-05-19T17:45:31.158Z,99202.69
2023-05-19T17:47:59.940Z,99200.53
2023-05-19T17:50:28.702Z,99202.16
2023-05-19T17:52:59.303Z,99193.69
2023-05-19T17:55:31.011Z,99195.75
2023-05-19T17:58:00.276Z,99197.81
2023-05-19T18:00:29.473Z,99193.50
2023-05-19T18:02:58.988Z,99202.47
2023-05-19T18:05:28.643Z,99202.94
2023-05-19T18:07:58.919Z,99198.13
2023-05-19T18:10:28.553Z,99196.16
2023-05-19T18:12:57.213Z,99198.00
2023-05-19T18:15:25.868Z,99195.03
2023-05-19T18:17:54.563Z,99194.72
2023-05-19T18:20:23.340Z,99195.44
2023-05-19T18:22:53.145Z,99196.72
2023-05-19T18:25:23.125Z,99191.34
2023-05-19T18:27:55.627Z,99186.81
2023-05-19T18:30:24.622Z,99191.19
2023-05-19T18:32:53.271Z,99186.16
2023-05-19T18:35:22.012Z,99190.31
2023-05-19T18:37:50.716Z,99189.75
2023-05-19T18:40:19.412Z,99190.94
2023-05-19T18:42:49.467Z,99192.44
2023-05-19T18:45:18.235Z,99192.84
2023-05-19T18:47:46.925Z,99181.75
2023-05-19T18:50:16.512Z,99189.09
2023-05-19T18:52:45.177Z,99193.78
2023-05-19T18:55:13.777Z,99195.03
2023-05-19T18:57:42.461Z,99189.47
2023-05-19T19:00:14.570Z,99189.84
2023-05-19T19:02:43.281Z,99189.97
2023-05-19T19:05:13.769Z,99190.56
2023-05-19T19:07:43.252Z,99191.97
2023-05-19T19:10:12.232Z,99191.84
2023-05-19T19:12:40.959Z,99193.94
2023-05-19T19:15:10.873Z,99196.56
2023-05-19T19:17:41.173Z,99195.19
2023-05-19T19:20:11.083Z,99203.78
2023-05-19T19:22:39.851Z,99208.03
2023-05-19T19:25:09.315Z,99205.41
2023-05-19T19:27:37.966Z,99211.94
2023-05-19T19:30:08.023Z,99209.53
2023-05-19T19:32:36.791Z,99215.03
2023-05-19T19:35:07.332Z,99218.69
2023-05-19T19:37:36.049Z,99205.16
2023-05-19T19:40:05.226Z,99200.72
2023-05-19T19:42:34.090Z,99202.22
2023-05-19T19:45:02.938Z,99200.84
2023-05-19T19:47:32.716Z,99200.53
2023-05-19T19:50:05.477Z,99200.97
2023-05-19T19:52:35.499Z,99194.13
2023-05-19T19:55:04.492Z,99198.91
2023-05-19T19:57:34.241Z,99198.56
2023-05-19T20:00:08.054Z,99206.44
2023-05-19T20:02:45.548Z,99198.25
2023-05-19T20:05:24.473Z,99201.91
2023-05-19T20:07:54.527Z,99202.69
2023-05-19T20:10:23.270Z,99202.34
2023-05-19T20:12:52.196Z,99209.66
2023-05-19T20:15:21.114Z,99210.34
2023-05-19T20:17:49.788Z,99205.34
2023-05-19T20:20:18.664Z,99204.06
2023-05-19T20:22:47.630Z,99204.88
2023-05-19T20:25:17.744Z,99198.59
2023-05-19T20:27:46.414Z,99198.81
2023-05-19T20:30:15.080Z,99196.19
2023-05-19T20:32:43.754Z,99204.06
2023-05-19T20:35:12.522Z,99204.31
2023-05-19T20:37:41.358Z,99194.03
2023-05-19T20:40:11.111Z,99198.69
2023-05-19T20:42:41.771Z,99201.31
2023-05-19T20:45:10.679Z,99196.53
2023-05-19T20:47:39.411Z,99193.09
2023-05-19T20:50:09.079Z,99195.75
2023-05-19T20:52:37.696Z,99195.38
2023-05-19T20:55:06.727Z,99196.63
2023-05-19T20:57:35.800Z,99189.34
2023-05-19T21:00:07.009Z,99189.09
2023-05-19T21:02:35.795Z,99189.56
2023-05-19T21:05:05.356Z,99194.25
2023-05-19T21:07:34.180Z,99186.34
2023-05-19T21:10:02.892Z,99186.81
2023-05-19T21:12:34.272Z,99188.66
2023-05-19T21:15:05.950Z,99189.91
2023-05-19T21:17:34.678Z,99193.78
2023-05-19T21:20:03.852Z,99186.72
2023-05-19T21:22:32.805Z,99186.81
2023-05-19T21:25:01.496Z,99187.84
2023-05-19T21:27:32.185Z,99180.53
2023-05-19T21:30:00.842Z,99180.06
2023-05-19T21:32:30.907Z,99179.28
2023-05-19T21:34:59.989Z,99174.25
2023-05-19T21:37:28.663Z,99175.28
2023-05-19T21:39:57.326Z,99183.84
2023-05-19T21:42:25.966Z,99172.19
2023-05-19T21:44:54.860Z,99169.78
2023-05-19T21:47:23.693Z,99162.56
2023-05-19T21:49:53.705Z,99163.03
2023-05-19T21:52:22.932Z,99161.88
2023-05-19T21:54:51.928Z,99158.34
2023-05-19T21:57:20.644Z,99155.94
2023-05-19T21:59:49.950Z,99161.66
2023-05-19T22:02:18.650Z,99150.00
2023-05-19T22:04:47.310Z,99147.59
2023-05-19T22:07:17.467Z,99143.25
2023-05-19T22:09:48.160Z,99144.06
2023-05-19T22:12:17.719Z,99137.28
2023-05-19T22:14:46.592Z,99135.00
2023-05-19T22:17:15.391Z,99150.19
2023-05-19T22:19:43.974Z,99145.13
2023-05-19T22:22:14.300Z,99145.81
2023-05-19T22:24:44.848Z,99158.63
2023-05-19T22:27:13.459Z,99150.50
2023-05-19T22:29:42.088Z,99153.69
2023-05-19T22:32:12.157Z,99150.06
2023-05-19T22:34:41.066Z,99153.13
2023-05-19T22:37:09.697Z,99147.66
2023-05-19T22:39:39.380Z,99136.44
2023-05-19T22:42:09.392Z,99144.81
2023-05-19T22:44:38.054Z,99142.03
2023-05-19T22:47:06.838Z,99136.00
2023-05-19T22:49:35.732Z,99138.47
2023-05-19T22:52:04.626Z,99132.06
2023-05-19T22:54:33.327Z,99138.59
2023-05-19T22:57:03.344Z,99138.91
2023-05-19T22:59:33.621Z,99141.53
2023-05-19T23:02:02.511Z,99131.03
2023-05-19T23:04:31.446Z,99131.84
2023-05-19T23:07:00.199Z,99143.16
2023-05-19T23:09:29.099Z,99136.84
2023-05-19T23:11:57.791Z,99136.75
2023-05-19T23:14:26.826Z,99133.53
2023-05-19T23:16:56.953Z,99133.75
2023-05-19T23:19:25.815Z,99131.13
2023-05-19T23:21:54.492Z,99129.19
2023-05-19T23:24:23.159Z,99118.31
2023-05-19T23:26:52.023Z,99120.28
2023-05-19T23:29:20.735Z,99117.06
2023-05-19T23:31:49.411Z,99112.41
2023-05-19T23:34:19.457Z,99114.91
2023-05-19T23:36:48.236Z,99113.50
2023-05-19T23:39:16.933Z,99105.41
2023-05-19T23:41:46.101Z,99114.66
2023-05-19T23:44:14.757Z,99112.13
2023-05-19T23:46:43.492Z,99104.16
2023-05-19T23:49:12.146Z,99108.56
2023-05-19T23:51:42.962Z,99108.25
2023-05-19T23:54:11.645Z,99110.41
2023-05-19T23:56:40.375Z,99095.13
2023-05-19T23:59:09.018Z,99102.75
